Time;durP1;ratioP1;P1;durP2;ratioP2;P2;SDS_P1;SDS_P2;PMS_P1;PMS_P2;Temp;Humidity;BMP_temperature;BMP_pressure;BME280_temperature;BME280_humidity;BME280_pressure;Samples;Min_cycle;Max_cycle;Signal;HPM_P1;HPM_P2
2021/04/20 00:00:01;;;;;;;16.15;14.10;;;;;;;10.17;58.35;100416.77;114121;1196;103866;-79
2021/04/20 00:02:27;;;;;;;17.38;13.58;;;;;;;10.16;58.79;100411.48;114054;1196;103288;-79
2021/04/20 00:04:54;;;;;;;18.77;13.93;;;;;;;10.13;58.74;100411.54;114024;1196;103194;-80
2021/04/20 00:07:21;;;;;;;17.70;15.13;;;;;;;10.11;58.33;100416.91;114022;1196;103112;-80
2021/04/20 00:09:48;;;;;;;18.00;14.70;;;;;;;10.11;57.85;100413.38;114073;1196;103744;-79
2021/04/20 00:12:15;;;;;;;18.15;13.65;;;;;;;10.13;58.22;100409.77;114097;1200;103188;-79
2021/04/20 00:14:41;;;;;;;19.23;14.67;;;;;;;10.17;58.04;100413.21;114059;1196;103105;-79
2021/04/20 00:17:08;;;;;;;17.97;16.17;;;;;;;10.15;57.60;100415.05;114000;1197;103246;-80
2021/04/20 00:19:35;;;;;;;22.33;15.98;;;;;;;10.16;57.48;100408.83;114168;1197;103141;-79
2021/04/20 00:22:02;;;;;;;17.13;14.30;;;;;;;10.16;57.23;100412.35;114081;1196;103182;-79
2021/04/20 00:24:28;;;;;;;21.43;15.43;;;;;;;10.12;57.88;100409.81;114044;1196;103255;-79
2021/04/20 00:26:55;;;;;;;20.50;14.77;;;;;;;10.14;58.05;100413.30;114072;1196;103112;-79
2021/04/20 00:29:23;;;;;;;17.67;14.67;;;;;;;10.17;58.45;100405.23;114439;1196;103594;-79
2021/04/20 00:31:49;;;;;;;16.50;14.70;;;;;;;10.14;58.47;100411.53;114160;1196;103086;-79
2021/04/20 00:34:17;;;;;;;16.00;13.67;;;;;;;10.13;58.73;100400.89;114210;1196;103127;-79
2021/04/20 00:36:43;;;;;;;19.85;16.75;;;;;;;10.09;58.47;100407.20;114262;1199;103278;-78
2021/04/20 00:39:13;;;;;;;17.88;14.00;;;;;;;10.00;57.93;100403.86;114203;1196;103367;-79
2021/04/20 00:41:40;;;;;;;17.50;14.73;;;;;;;9.96;57.55;100403.98;114149;1196;103220;-79
2021/04/20 00:44:06;;;;;;;19.10;13.85;;;;;;;9.93;58.50;100396.95;114174;1196;103092;-80
2021/04/20 00:46:47;;;;;;;18.40;14.35;;;;;;;9.90;58.06;100393.48;113862;1199;103166;-80
2021/04/20 00:49:15;;;;;;;18.25;14.80;;;;;;;9.88;57.40;100396.19;113853;1199;103166;-81
2021/04/20 00:51:42;;;;;;;16.83;13.67;;;;;;;9.84;58.08;100402.48;113623;1199;103281;-81
2021/04/20 00:54:08;;;;;;;21.18;13.85;;;;;;;9.81;58.45;100395.45;113692;1200;103179;-80
2021/04/20 00:56:35;;;;;;;19.97;13.23;;;;;;;9.80;57.70;100392.83;113836;1200;103267;-80
2021/04/20 00:59:02;;;;;;;14.23;12.53;;;;;;;9.81;58.08;100398.11;113841;1200;103172;-78
2021/04/20 01:01:29;;;;;;;16.63;13.23;;;;;;;9.85;57.75;100393.60;113741;1199;103268;-79
2021/04/20 01:03:57;;;;;;;16.53;13.03;;;;;;;9.85;57.35;100396.27;113715;1199;103286;-79
2021/04/20 01:06:24;;;;;;;16.65;13.50;;;;;;;9.83;57.24;100390.09;113765;1199;103210;-80
2021/04/20 01:08:51;;;;;;;15.93;13.30;;;;;;;9.82;57.04;100394.55;113813;1199;103376;-79
2021/04/20 01:11:20;;;;;;;15.90;13.43;;;;;;;9.79;57.65;100394.59;113903;1196;103125;-78
2021/04/20 01:13:47;;;;;;;19.35;13.38;;;;;;;9.80;57.76;100387.52;114236;1195;103354;-79
2021/04/20 01:16:15;;;;;;;14.50;11.87;;;;;;;9.79;57.55;100399.05;114179;1196;103101;-79
2021/04/20 01:18:42;;;;;;;17.90;13.60;;;;;;;9.75;57.81;100389.41;114217;1197;103718;-78
2021/04/20 01:21:12;;;;;;;18.10;13.50;;;;;;;9.71;58.27;100391.25;114122;1197;103794;-80
2021/04/20 01:24:02;;;;;;;14.70;13.13;;;;;;;9.66;58.01;100393.13;114197;1196;103076;-79
2021/04/20 01:26:32;;;;;;;16.50;13.15;;;;;;;9.59;57.95;100392.39;113941;1196;103127;-79
2021/04/20 01:29:00;;;;;;;15.80;12.35;;;;;;;9.60;58.29;100393.29;114874;1196;103044;-79
2021/04/20 01:31:29;;;;;;;15.10;11.95;;;;;;;9.58;58.37;100395.95;114184;1196;103479;-80
2021/04/20 01:33:56;;;;;;;15.00;13.50;;;;;;;9.56;58.33;100391.58;114206;1196;103144;-79
2021/04/20 01:36:25;;;;;;;16.40;12.45;;;;;;;9.54;57.99;100392.52;113709;1196;103172;-79
2021/04/20 01:38:53;;;;;;;14.40;12.97;;;;;;;9.51;57.92;100395.22;114370;1196;103104;-79
2021/04/20 01:41:23;;;;;;;16.00;13.17;;;;;;;9.50;58.30;100393.50;114298;1196;103836;-79
2021/04/20 01:43:51;;;;;;;16.43;12.33;;;;;;;9.46;58.41;100394.47;114688;1196;103637;-79
2021/04/20 01:46:19;;;;;;;15.70;11.93;;;;;;;9.44;58.46;100392.75;114052;1196;103911;-80
2021/04/20 01:48:48;;;;;;;16.77;13.00;;;;;;;9.42;58.27;100389.23;114180;1196;103188;-80
2021/04/20 01:51:15;;;;;;;15.88;13.70;;;;;;;9.42;58.44;100389.23;114050;1196;103194;-80
2021/04/20 01:53:43;;;;;;;13.65;12.00;;;;;;;9.43;59.10;100394.52;114121;1196;103593;-80
2021/04/20 01:56:11;;;;;;;13.43;12.03;;;;;;;9.50;58.92;100397.92;114196;1196;103149;-80
2021/04/20 01:58:41;;;;;;;13.80;11.90;;;;;;;9.52;58.60;100391.66;114139;1199;103260;-80
2021/04/20 02:01:24;;;;;;;16.50;12.37;;;;;;;9.51;59.12;100394.36;114331;1196;103249;-79
2021/04/20 02:03:52;;;;;;;15.87;12.60;;;;;;;9.47;58.30;100385.56;114192;1200;103098;-80
2021/04/20 02:06:23;;;;;;;14.00;12.50;;;;;;;9.47;59.05;100387.36;114057;1196;103242;-79
2021/04/20 02:08:50;;;;;;;17.38;12.80;;;;;;;9.46;58.99;100382.95;114289;1198;103105;-79
2021/04/20 02:11:19;;;;;;;20.57;14.03;;;;;;;9.40;58.71;100385.73;114108;1196;103583;-80
2021/04/20 02:13:46;;;;;;;17.65;12.95;;;;;;;9.40;59.14;100386.63;114223;1196;103123;-80
2021/04/20 02:16:14;;;;;;;14.87;11.73;;;;;;;9.44;59.70;100388.30;114118;1196;103249;-80
2021/04/20 02:18:51;;;;;;;15.15;12.73;;;;;;;9.49;59.07;100386.42;114502;1196;103118;-80
2021/04/20 02:21:18;;;;;;;16.50;12.53;;;;;;;9.51;58.47;100379.27;114109;1196;103085;-79
2021/04/20 02:23:46;;;;;;;17.40;12.95;;;;;;;9.52;59.02;100380.16;114175;1196;103444;-80
2021/04/20 02:26:17;;;;;;;13.77;12.37;;;;;;;9.50;58.62;100382.86;114139;1196;103229;-79
2021/04/20 02:28:44;;;;;;;17.50;12.95;;;;;;;9.46;59.07;100388.27;114181;1196;103239;-80
2021/04/20 02:31:11;;;;;;;13.88;12.38;;;;;;;9.40;58.89;100383.96;114259;1199;103655;-80
2021/04/20 02:33:38;;;;;;;13.90;12.40;;;;;;;9.34;59.01;100384.98;114206;1196;103185;-79
2021/04/20 02:36:06;;;;;;;13.43;12.13;;;;;;;9.34;59.14;100378.77;114280;1196;103085;-80
2021/04/20 02:38:33;;;;;;;14.90;13.20;;;;;;;9.27;59.63;100387.80;114195;1197;103559;-80
2021/04/20 02:41:02;;;;;;;14.93;12.15;;;;;;;9.20;59.61;100385.25;114195;1196;103975;-79
2021/04/20 02:43:30;;;;;;;16.57;13.07;;;;;;;9.16;60.27;100386.23;114062;1198;103197;-80
2021/04/20 02:45:59;;;;;;;20.23;14.33;;;;;;;9.11;59.55;100381.92;114324;1196;103175;-80
2021/04/20 02:48:28;;;;;;;15.33;13.37;;;;;;;9.04;60.25;100382.03;114176;1196;103133;-79
2021/04/20 02:50:56;;;;;;;20.57;13.80;;;;;;;9.01;60.37;100383.88;114494;1196;103117;-79
2021/04/20 02:53:25;;;;;;;13.60;11.33;;;;;;;8.98;60.11;100376.87;114260;1196;103393;-79
2021/04/20 02:55:52;;;;;;;13.90;12.40;;;;;;;8.96;60.32;100375.15;114195;1197;103108;-80
2021/04/20 02:58:22;;;;;;;14.60;13.10;;;;;;;8.93;61.03;100378.73;114926;1196;103700;-79
2021/04/20 03:01:02;;;;;;;17.28;13.08;;;;;;;8.90;61.13;100384.09;114258;1196;103124;-79
2021/04/20 03:03:29;;;;;;;15.90;12.90;;;;;;;8.83;61.43;100377.16;114050;1196;103133;-79
2021/04/20 03:06:01;;;;;;;16.63;12.77;;;;;;;8.69;61.64;100375.65;113984;1196;103284;-80
2021/04/20 03:08:30;;;;;;;16.47;12.73;;;;;;;8.68;61.26;100373.03;116753;1196;100975;-80
2021/04/20 03:10:58;;;;;;;21.13;15.53;;;;;;;8.68;61.16;100375.68;115238;1196;103118;-80
2021/04/20 03:13:25;;;;;;;18.25;11.65;;;;;;;8.65;61.36;100373.06;116726;1196;101917;-79
2021/04/20 03:15:51;;;;;;;16.45;13.48;;;;;;;8.64;61.48;100371.34;116621;1196;101835;-79
2021/04/20 03:18:19;;;;;;;20.43;13.85;;;;;;;8.63;61.86;100369.58;115698;1196;103203;-80
2021/04/20 03:20:45;;;;;;;15.05;13.40;;;;;;;8.57;61.64;100370.58;114060;1196;103152;-80
2021/04/20 03:23:12;;;;;;;19.45;13.88;;;;;;;8.52;61.50;100367.99;114202;1196;103169;-80
2021/04/20 03:25:40;;;;;;;16.15;13.53;;;;;;;8.45;61.93;100363.71;114158;1196;103091;-79
2021/04/20 03:28:08;;;;;;;17.65;12.80;;;;;;;8.44;62.62;100361.05;114072;1198;103235;-79
2021/04/20 03:30:35;;;;;;;16.40;13.18;;;;;;;8.33;62.86;100367.42;114320;1196;103127;-79
2021/04/20 03:33:31;;;;;;;27.70;16.50;;;;;;;8.35;62.66;100370.05;114055;1196;103182;-79
2021/04/20 03:36:05;;;;;;;18.40;14.10;;;;;;;8.33;62.65;100366.53;113911;1196;103121;-80
2021/04/20 03:38:46;;;;;;;18.83;15.30;;;;;;;8.31;62.90;100368.34;114164;1199;103350;-80
2021/04/20 03:41:26;;;;;;;18.73;14.30;;;;;;;8.32;62.48;100365.66;114016;1196;103280;-80
2021/04/20 03:44:00;;;;;;;20.43;15.93;;;;;;;8.32;62.21;100367.45;114164;1196;103236;-79
2021/04/20 03:46:36;;;;;;;21.58;16.10;;;;;;;8.26;62.29;100364.90;113954;1196;103170;-80
2021/04/20 03:49:17;;;;;;;24.18;17.30;;;;;;;8.22;62.16;100363.20;114410;1196;103117;-79
2021/04/20 03:51:49;;;;;;;20.37;16.53;;;;;;;8.13;62.64;100362.47;114054;1199;103153;-80
2021/04/20 03:54:17;;;;;;;19.03;14.95;;;;;;;8.09;62.76;100366.07;114054;1197;103319;-81
2021/04/20 03:56:46;;;;;;;21.00;15.73;;;;;;;8.04;63.37;100368.78;114202;1196;103175;-79
2021/04/20 03:59:14;;;;;;;18.70;15.85;;;;;;;7.98;63.97;100366.25;114442;1196;103574;-79
2021/04/20 04:01:44;;;;;;;25.03;16.87;;;;;;;7.91;64.26;100371.67;114041;1196;103117;-79
2021/04/20 04:04:13;;;;;;;18.35;14.85;;;;;;;7.91;64.81;100372.53;114169;1196;103178;-80
2021/04/20 04:06:42;;;;;;;30.15;14.85;;;;;;;7.88;64.97;100367.29;114126;1196;104065;-79
2021/04/20 04:09:11;;;;;;;30.63;15.10;;;;;;;7.86;64.99;100369.08;114039;1199;103281;-79
2021/04/20 04:11:45;;;;;;;26.23;17.30;;;;;;;7.83;65.26;100377.95;114311;1200;103117;-80
2021/04/20 04:14:12;;;;;;;20.50;15.05;;;;;;;7.85;64.40;100370.86;114269;1197;103120;-80
2021/04/20 04:16:58;;;;;;;18.03;15.13;;;;;;;7.97;64.76;100371.55;114072;1196;103194;-80
2021/04/20 04:19:44;;;;;;;20.43;15.17;;;;;;;8.04;65.25;100373.22;114079;1196;103073;-80
2021/04/20 04:22:13;;;;;;;20.10;16.83;;;;;;;8.10;64.75;100358.98;114212;1196;103166;-80
2021/04/20 04:24:45;;;;;;;20.97;15.37;;;;;;;8.16;64.56;100362.40;114047;1199;103290;-78
2021/04/20 04:27:14;;;;;;;22.03;17.00;;;;;;;8.20;64.06;100366.75;114095;1196;103089;-79
2021/04/20 04:29:42;;;;;;;23.07;16.17;;;;;;;8.20;64.33;100361.45;114222;1196;103123;-79
2021/04/20 04:32:11;;;;;;;18.40;14.98;;;;;;;8.22;64.76;100364.06;114202;1196;103117;-80
2021/04/20 04:34:40;;;;;;;25.87;16.57;;;;;;;8.23;64.78;100365.82;114168;1199;103174;-79
2021/04/20 04:37:08;;;;;;;22.87;16.27;;;;;;;8.27;65.45;100361.34;114505;1199;103686;-80
2021/04/20 04:39:35;;;;;;;20.23;15.57;;;;;;;8.31;65.29;100365.70;114101;1196;103763;-79
2021/04/20 04:42:02;;;;;;;22.33;15.73;;;;;;;8.34;65.51;100362.98;114133;1196;103092;-81
2021/04/20 04:44:29;;;;;;;17.95;14.28;;;;;;;8.40;66.00;100370.84;114175;1196;103201;-79
2021/04/20 04:46:56;;;;;;;20.35;15.30;;;;;;;8.49;64.91;100368.05;114059;1198;103255;-79
2021/04/20 04:49:23;;;;;;;27.20;15.30;;;;;;;8.61;64.51;100374.92;114014;1196;103085;-79
2021/04/20 04:51:50;;;;;;;22.20;17.27;;;;;;;8.72;64.79;100373.82;114002;1196;103088;-79
2021/04/20 04:54:18;;;;;;;25.10;15.13;;;;;;;8.78;63.88;100368.41;114119;1197;103243;-79
2021/04/20 04:56:45;;;;;;;20.30;14.23;;;;;;;8.86;64.26;100364.70;114112;1198;103249;-80
2021/04/20 04:59:18;;;;;;;22.45;15.00;;;;;;;8.97;64.25;100366.25;114028;1196;103319;-81
2021/04/20 05:01:47;;;;;;;20.20;13.40;;;;;;;8.97;64.17;100363.59;114121;1196;103248;-79
2021/04/20 05:04:14;;;;;;;16.63;13.17;;;;;;;9.07;63.32;100367.81;114125;1196;103293;-79
2021/04/20 05:06:46;;;;;;;17.17;12.57;;;;;;;9.15;63.25;100365.01;114295;1196;103111;-79
2021/04/20 05:09:16;;;;;;;17.97;11.07;;;;;;;9.25;61.95;100365.67;114077;1197;103137;-79
2021/04/20 05:11:48;;;;;;;18.55;11.45;;;;;;;9.37;61.95;100363.64;114053;1196;103530;-79
2021/04/20 05:14:16;;;;;;;14.40;10.25;;;;;;;9.44;61.60;100371.48;114131;1196;103076;-79
2021/04/20 05:16:48;;;;;;;16.33;12.53;;;;;;;9.56;61.98;100360.57;114050;1196;103278;-80
2021/04/20 05:19:29;;;;;;;35.80;24.37;;;;;;;9.65;61.37;100368.34;113982;1196;103207;-79
2021/04/20 05:21:57;;;;;;;14.90;11.63;;;;;;;9.77;61.67;100364.52;113990;1196;103272;-78
2021/04/20 05:24:24;;;;;;;21.70;11.70;;;;;;;9.87;61.16;100365.16;113973;1196;103160;-79
2021/04/20 05:26:51;;;;;;;13.27;9.93;;;;;;;9.98;60.29;100364.90;114052;1196;103092;-78
2021/04/20 05:29:18;;;;;;;15.30;8.73;;;;;;;10.10;60.01;100355.74;114086;1196;103262;-79
2021/04/20 05:31:45;;;;;;;12.97;10.20;;;;;;;10.20;60.27;100359.93;113852;1199;103085;-78
2021/04/20 05:34:12;;;;;;;12.43;8.87;;;;;;;10.30;58.75;100360.55;114265;1198;103239;-79
2021/04/20 05:36:40;;;;;;;14.30;10.13;;;;;;;10.41;58.63;100360.30;114086;1196;103123;-79
2021/04/20 05:39:11;;;;;;;15.85;9.53;;;;;;;10.48;59.01;100365.44;114129;1198;104855;-79
2021/04/20 05:41:40;;;;;;;14.08;9.08;;;;;;;10.56;59.20;100361.72;114273;1197;103258;-79
2021/04/20 05:44:12;;;;;;;11.13;8.68;;;;;;;10.64;58.86;100362.38;113824;1196;103546;-79
2021/04/20 05:46:42;;;;;;;10.45;7.95;;;;;;;10.75;57.48;100365.60;114120;1196;103137;-80
2021/04/20 05:49:09;;;;;;;10.63;9.07;;;;;;;10.86;56.26;100365.30;114129;1196;103249;-78
2021/04/20 05:51:40;;;;;;;9.20;7.97;;;;;;;10.97;56.31;100365.88;114411;1196;103253;-80
2021/04/20 05:54:08;;;;;;;11.03;8.30;;;;;;;11.09;55.45;100377.98;114202;1196;103498;-80
2021/04/20 05:56:36;;;;;;;9.05;7.10;;;;;;;11.19;54.48;100370.58;114311;1196;103194;-80
2021/04/20 05:59:04;;;;;;;23.53;8.90;;;;;;;11.27;55.00;100368.56;114179;1199;103230;-78
2021/04/20 06:01:36;;;;;;;10.83;7.83;;;;;;;11.37;54.19;100369.18;114119;1199;103270;-80
2021/04/20 06:04:08;;;;;;;11.50;8.60;;;;;;;11.45;54.15;100367.15;114753;1196;103197;-84
2021/04/20 06:06:39;;;;;;;10.73;7.68;;;;;;;11.57;53.22;100359.67;114594;1196;103444;-80
2021/04/20 06:09:08;;;;;;;9.33;6.97;;;;;;;11.67;54.08;100359.33;114202;1196;103212;-80
2021/04/20 06:11:35;;;;;;;9.53;7.13;;;;;;;11.77;53.82;100364.38;114338;1196;103574;-79
2021/04/20 06:14:02;;;;;;;13.58;7.48;;;;;;;11.81;53.97;100360.69;114265;1196;103875;-80
2021/04/20 06:16:30;;;;;;;9.38;6.70;;;;;;;11.95;52.34;100361.15;114051;1196;103089;-79
2021/04/20 06:18:58;;;;;;;10.10;6.38;;;;;;;12.04;51.87;100354.65;114610;1197;103127;-79
2021/04/20 06:21:26;;;;;;;9.60;6.70;;;;;;;12.10;51.09;100349.12;114082;1194;103092;-80
2021/04/20 06:23:53;;;;;;;6.95;6.23;;;;;;;12.17;51.66;100345.30;114101;1196;103281;-80
2021/04/20 06:26:21;;;;;;;12.73;7.20;;;;;;;12.27;52.62;100355.67;114326;1196;103179;-80
2021/04/20 06:28:48;;;;;;;13.48;6.65;;;;;;;12.34;52.15;100342.06;114068;1196;103568;-80
2021/04/20 06:31:15;;;;;;;9.40;5.70;;;;;;;12.44;50.92;100347.95;114132;1200;103261;-80
2021/04/20 06:33:45;;;;;;;7.67;5.07;;;;;;;12.52;48.79;100348.55;114103;1196;103207;-80
2021/04/20 06:36:13;;;;;;;8.13;5.27;;;;;;;12.63;49.42;100348.16;114023;1196;103252;-81
2021/04/20 06:38:41;;;;;;;8.13;5.30;;;;;;;12.72;49.53;100338.95;114160;1196;103216;-80
2021/04/20 06:41:09;;;;;;;8.57;5.53;;;;;;;12.79;49.64;100340.47;114106;1196;103357;-80
2021/04/20 06:44:09;;;;;;;8.73;6.00;;;;;;;12.86;49.33;100342.00;114139;1196;103185;-80
2021/04/20 06:46:43;;;;;;;8.07;5.10;;;;;;;12.90;48.59;100340.06;114154;1197;103178;-80
2021/04/20 06:49:16;;;;;;;8.13;6.58;;;;;;;12.92;49.02;100334.69;114195;1196;103092;-79
2021/04/20 06:51:54;;;;;;;9.03;5.90;;;;;;;13.01;48.83;100339.69;114026;1196;103194;-79
2021/04/20 06:54:34;;;;;;;5.50;4.97;;;;;;;13.08;47.30;100335.84;114226;1196;103166;-80
2021/04/20 06:57:22;;;;;;;5.95;4.98;;;;;;;13.18;47.66;100339.92;113978;1196;103150;-81
2021/04/20 07:00:04;;;;;;;5.90;5.10;;;;;;;13.20;47.39;100337.19;114329;1196;103264;-82
2021/04/20 07:03:01;;;;;;;7.40;4.83;;;;;;;13.32;46.85;100343.88;114546;1196;103025;-82
2021/04/20 07:05:49;;;;;;;9.05;5.93;;;;;;;13.45;47.10;100333.58;113977;1196;103127;-81
2021/04/20 07:08:40;;;;;;;7.18;5.65;;;;;;;13.54;47.09;100335.89;113961;1197;103109;-80
2021/04/20 07:11:07;;;;;;;10.03;6.15;;;;;;;13.57;46.80;100327.77;113904;1196;103552;-79
2021/04/20 07:13:37;;;;;;;8.33;5.70;;;;;;;13.65;45.42;100332.81;114101;1196;103281;-79
2021/04/20 07:16:33;;;;;;;7.20;5.70;;;;;;;13.69;46.31;100327.26;114389;1196;103122;-80
2021/04/20 07:19:35;;;;;;;8.37;4.67;;;;;;;13.80;45.80;100324.14;114058;1196;103212;-80
2021/04/20 07:22:21;;;;;;;7.20;5.37;;;;;;;13.90;45.27;100332.66;114046;1199;103203;-79
2021/04/20 07:25:05;;;;;;;9.77;5.90;;;;;;;13.99;45.46;100323.38;114947;1200;103794;-80
2021/04/20 07:27:35;;;;;;;8.23;5.63;;;;;;;14.02;44.84;100328.59;113662;1199;103313;-80
2021/04/20 07:30:23;;;;;;;5.65;4.70;;;;;;;14.05;44.24;100323.14;113886;1199;103141;-81
2021/04/20 07:33:10;;;;;;;9.95;4.75;;;;;;;14.11;45.01;100330.03;114132;1200;103918;-80
2021/04/20 07:36:02;;;;;;;6.50;4.70;;;;;;;14.19;44.32;100317.18;113611;1199;103405;-80
2021/04/20 07:38:48;;;;;;;5.45;4.05;;;;;;;14.26;43.66;100320.47;113444;1200;103185;-81
2021/04/20 07:41:23;;;;;;;7.67;4.30;;;;;;;14.35;43.29;100320.96;113859;1200;103210;-80
2021/04/20 07:44:20;;;;;;;5.87;4.80;;;;;;;14.52;43.42;100320.20;113619;1199;104180;-80
2021/04/20 07:46:52;;;;;;;8.03;4.68;;;;;;;14.65;42.68;100325.08;113370;1200;103310;-80
2021/04/20 07:49:46;;;;;;;8.20;5.15;;;;;;;14.78;43.21;100323.58;116506;1200;101352;-80
2021/04/20 07:52:35;;;;;;;9.35;4.98;;;;;;;14.99;43.41;100327.07;116460;1200;101132;-81
2021/04/20 07:55:23;;;;;;;5.60;5.00;;;;;;;15.15;42.26;100315.64;115318;1200;103233;-80
2021/04/20 07:57:54;;;;;;;5.27;4.60;;;;;;;15.28;40.81;100319.48;113333;1200;103966;-83
2021/04/20 08:00:34;;;;;;;6.55;4.88;;;;;;;15.38;40.54;100309.17;115164;1199;103060;-80
2021/04/20 08:03:04;;;;;;;5.00;4.15;;;;;;;15.49;40.18;100306.86;113728;1196;103316;-79
2021/04/20 08:06:00;;;;;;;6.05;4.38;;;;;;;15.57;41.39;100306.50;113466;1199;103189;-80
2021/04/20 08:08:40;;;;;;;5.55;4.43;;;;;;;15.65;40.57;100304.30;113685;1199;103370;-80
2021/04/20 08:11:49;;;;;;;8.10;4.70;;;;;;;15.74;40.86;100305.68;113504;1199;103179;-81
2021/04/20 08:14:52;;;;;;;6.30;4.88;;;;;;;15.82;40.08;100292.77;113493;1200;103242;-79
2021/04/20 08:17:26;;;;;;;8.57;5.13;;;;;;;15.86;40.20;100301.52;113363;1199;103338;-80
2021/04/20 08:20:01;;;;;;;4.75;4.25;;;;;;;15.96;39.43;100296.58;113500;1200;103111;-80
2021/04/20 08:22:28;;;;;;;4.58;4.18;;;;;;;16.09;38.54;100297.69;113306;1199;103236;-79
2021/04/20 08:25:01;;;;;;;6.77;5.97;;;;;;;16.26;39.82;100302.20;113315;1200;103284;-79
2021/04/20 08:27:50;;;;;;;6.00;5.25;;;;;;;16.44;39.24;100294.13;113265;1199;103690;-80
2021/04/20 08:30:54;;;;;;;9.10;6.73;;;;;;;16.62;38.67;100294.95;114276;1200;103079;-80
2021/04/20 08:33:26;;;;;;;7.45;5.20;;;;;;;16.74;37.68;100291.63;113395;1200;103376;-80
2021/04/20 08:35:57;;;;;;;7.13;5.33;;;;;;;16.84;36.89;100287.47;113564;1199;103265;-81
2021/04/20 08:38:49;;;;;;;9.65;6.08;;;;;;;16.97;37.94;100290.41;113821;1200;103888;-80
2021/04/20 08:41:44;;;;;;;8.27;5.10;;;;;;;16.94;35.68;100295.08;113464;1200;103160;-81
2021/04/20 08:44:48;;;;;;;6.43;5.67;;;;;;;16.88;36.33;100283.66;113970;1199;103268;-81
2021/04/20 08:47:26;;;;;;;5.95;4.73;;;;;;;17.02;37.03;100280.27;114092;1196;103243;-81
2021/04/20 08:50:05;;;;;;;8.30;5.83;;;;;;;17.19;36.35;100278.45;114056;1196;104846;-80
2021/04/20 08:52:57;;;;;;;8.27;5.33;;;;;;;17.30;36.01;100273.34;113939;1196;103185;-80
2021/04/20 08:55:53;;;;;;;7.30;5.67;;;;;;;17.36;35.87;100274.81;113899;1196;103194;-80
2021/04/20 08:58:45;;;;;;;6.05;4.85;;;;;;;17.53;36.29;100273.86;113862;1198;103175;-80
2021/04/20 09:01:21;;;;;;;6.87;5.70;;;;;;;17.63;36.06;100277.73;113991;1199;103085;-81
2021/04/20 09:04:11;;;;;;;5.18;4.38;;;;;;;17.77;33.65;100278.78;113860;1200;103213;-79
2021/04/20 09:06:50;;;;;;;8.17;5.90;;;;;;;17.71;34.43;100277.30;114123;1196;103187;-80
2021/04/20 09:09:21;;;;;;;6.97;4.67;;;;;;;17.95;34.88;100274.16;113998;1196;103173;-80
2021/04/20 09:12:02;;;;;;;6.00;4.30;;;;;;;18.53;33.86;100276.02;114049;1196;103777;-81
2021/04/20 09:14:38;;;;;;;8.97;5.60;;;;;;;20.29;31.44;100269.19;114144;1196;103160;-80
2021/04/20 09:17:14;;;;;;;5.03;4.15;;;;;;;21.53;28.89;100266.70;113925;1196;103255;-81
2021/04/20 09:20:05;;;;;;;5.20;4.70;;;;;;;22.64;28.63;100264.66;114174;1196;103173;-81
2021/04/20 09:22:54;;;;;;;6.55;4.93;;;;;;;23.32;27.04;100253.80;114138;1196;103274;-81
2021/04/20 09:25:25;;;;;;;7.27;4.93;;;;;;;23.60;26.75;100257.80;113962;1196;103108;-81
2021/04/20 09:28:05;;;;;;;5.57;4.73;;;;;;;23.95;27.01;100256.73;113957;1196;103080;-80
2021/04/20 09:30:45;;;;;;;5.90;3.20;;;;;;;25.11;24.01;100254.84;113880;1198;103242;-81
2021/04/20 09:33:19;;;;;;;5.20;4.00;;;;;;;23.94;24.97;100237.80;114434;1196;103101;-81
2021/04/20 09:35:48;;;;;;;4.83;4.03;;;;;;;23.25;27.91;100250.72;114083;1196;103210;-81
2021/04/20 09:38:16;;;;;;;4.53;4.10;;;;;;;23.32;26.66;100256.52;114089;1196;103107;-81
2021/04/20 09:40:46;;;;;;;4.68;3.60;;;;;;;25.00;26.03;100246.77;114136;1196;103163;-81
2021/04/20 09:43:21;;;;;;;6.53;4.20;;;;;;;25.68;22.85;100243.36;114003;1197;103666;-80
2021/04/20 09:45:57;;;;;;;4.53;4.03;;;;;;;26.62;21.36;100237.25;113931;1196;103201;-81
2021/04/20 09:48:44;;;;;;;4.97;4.50;;;;;;;27.49;20.86;100246.08;114045;1196;103127;-81
2021/04/20 09:51:16;;;;;;;3.18;2.88;;;;;;;27.93;20.63;100231.63;113924;1200;103194;-81
2021/04/20 09:53:55;;;;;;;5.50;4.50;;;;;;;28.91;20.81;100236.14;113889;1199;104487;-81
2021/04/20 09:56:29;;;;;;;5.17;3.60;;;;;;;29.92;19.93;100230.79;113980;1197;103252;-81
2021/04/20 09:58:56;;;;;;;4.08;3.23;;;;;;;29.39;18.29;100232.90;113851;1196;103284;-79
2021/04/20 10:02:05;;;;;;;4.80;4.17;;;;;;;29.88;19.04;100218.44;113830;1196;103118;-79
2021/04/20 10:04:37;;;;;;;2.90;2.60;;;;;;;29.87;15.77;100228.57;113761;1196;103204;-80
2021/04/20 10:07:26;;;;;;;4.15;3.58;;;;;;;30.08;17.58;100222.54;114064;1196;103616;-82
2021/04/20 10:10:01;;;;;;;6.80;3.80;;;;;;;30.71;17.82;100217.34;114009;1196;103169;-81
2021/04/20 10:12:33;;;;;;;4.10;3.70;;;;;;;31.19;17.27;100217.34;113983;1196;103281;-78
2021/04/20 10:15:27;;;;;;;4.45;3.73;;;;;;;31.40;17.55;100205.67;114305;1196;103191;-80
2021/04/20 10:18:33;;;;;;;6.33;5.18;;;;;;;31.59;16.80;100209.88;113941;1197;103169;-80
2021/04/20 10:21:21;;;;;;;7.33;4.30;;;;;;;31.88;16.63;100205.53;113841;1198;103248;-81
2021/04/20 10:24:23;;;;;;;5.17;3.17;;;;;;;31.84;16.35;100209.70;113887;1196;103234;-80
2021/04/20 10:26:56;;;;;;;5.93;4.65;;;;;;;29.49;17.79;100212.52;114211;1196;103207;-81
2021/04/20 10:29:38;;;;;;;4.13;3.73;;;;;;;28.34;19.35;100201.02;114041;1196;103199;-81
2021/04/20 10:32:45;;;;;;;5.17;4.30;;;;;;;27.37;20.15;100206.30;114113;1197;103385;-79
2021/04/20 10:35:22;;;;;;;8.00;4.73;;;;;;;26.65;20.49;100206.05;116685;1196;101369;-80
2021/04/20 10:37:52;;;;;;;6.33;4.40;;;;;;;26.44;20.67;100196.19;116541;1198;101750;-81
2021/04/20 10:40:23;;;;;;;5.23;4.80;;;;;;;25.54;21.80;100201.02;116612;1196;101988;-81
2021/04/20 10:42:51;;;;;;;5.00;4.30;;;;;;;24.86;22.36;100194.38;116642;1196;101418;-81
2021/04/20 10:45:23;;;;;;;7.70;4.83;;;;;;;24.15;22.20;100200.60;116608;1196;101038;-81
2021/04/20 10:47:53;;;;;;;5.38;4.53;;;;;;;24.73;22.88;100190.19;116707;1196;101806;-82
2021/04/20 10:50:28;;;;;;;6.10;4.98;;;;;;;25.11;22.65;100191.29;116601;1199;101247;-81
2021/04/20 10:53:08;;;;;;;5.88;5.38;;;;;;;24.79;22.35;100182.33;114567;1197;103306;-80
2021/04/20 10:55:38;;;;;;;6.40;5.80;;;;;;;24.48;23.05;100185.01;114016;1199;103294;-80
2021/04/20 10:58:07;;;;;;;5.93;5.13;;;;;;;24.25;23.33;100186.19;114091;1196;103194;-80
2021/04/20 11:00:34;;;;;;;6.20;5.08;;;;;;;23.73;23.84;100184.22;114117;1196;103197;-81
2021/04/20 11:03:03;;;;;;;4.37;3.97;;;;;;;22.92;22.57;100187.27;114178;1197;103270;-79
2021/04/20 11:05:30;;;;;;;6.73;5.57;;;;;;;22.06;23.34;100181.41;114042;1197;103473;-80
2021/04/20 11:07:58;;;;;;;6.60;5.63;;;;;;;21.45;24.46;100173.41;114245;1198;103260;-80
2021/04/20 11:10:30;;;;;;;6.50;5.20;;;;;;;21.14;25.55;100173.86;114109;1196;103109;-79
2021/04/20 11:12:57;;;;;;;5.90;4.87;;;;;;;20.95;26.17;100170.78;114079;1199;103323;-79
2021/04/20 11:15:29;;;;;;;5.75;5.10;;;;;;;20.49;26.42;100174.96;114105;1200;103626;-79
2021/04/20 11:17:59;;;;;;;7.78;6.13;;;;;;;20.04;26.62;100176.23;114487;1197;103009;-80
2021/04/20 11:20:29;;;;;;;6.00;5.50;;;;;;;19.72;27.35;100173.89;114123;1200;103128;-80
2021/04/20 11:23:15;;;;;;;7.68;6.48;;;;;;;19.49;27.37;100164.66;114222;1198;103047;-79
2021/04/20 11:25:45;;;;;;;6.87;5.83;;;;;;;19.18;27.50;100163.13;113973;1199;103316;-79
2021/04/20 11:28:16;;;;;;;7.60;5.95;;;;;;;18.89;28.61;100165.92;114615;1196;103253;-79
2021/04/20 11:30:51;;;;;;;7.73;6.87;;;;;;;18.79;29.37;100164.75;114027;1196;103012;-80
2021/04/20 11:33:41;;;;;;;6.43;5.83;;;;;;;18.89;29.29;100149.73;114018;1196;103243;-80